Time;durP1;ratioP1;P1;durP2;ratioP2;P2;SDS_P1;SDS_P2;PMS_P1;PMS_P2;Temp;Humidity;BMP_temperature;BMP_pressure;BME280_temperature;BME280_humidity;BME280_pressure;Samples;Min_cycle;Max_cycle;Signal;HPM_P1;HPM_P2
2023/12/29 00:00:17;;;;;;;2.90;1.08;;;;;;;10.94;100.00;101112.22;5071079;28;20044;-83
2023/12/29 00:02:46;;;;;;;2.47;1.00;;;;;;;10.93;100.00;101119.94;5067002;28;20110;-85
2023/12/29 00:05:18;;;;;;;1.40;1.00;;;;;;;10.91;100.00;101122.47;5069111;28;20053;-83
2023/12/29 00:07:51;;;;;;;2.30;1.00;;;;;;;10.91;100.00;101106.94;5066273;28;20056;-82
2023/12/29 00:10:20;;;;;;;1.77;1.30;;;;;;;10.90;100.00;101110.34;5062719;28;20379;-83
2023/12/29 00:12:48;;;;;;;2.80;1.10;;;;;;;10.89;100.00;101112.06;5067648;28;20049;-83
2023/12/29 00:15:25;;;;;;;2.65;0.93;;;;;;;10.88;100.00;101125.84;5061942;28;20055;-82
2023/12/29 00:17:55;;;;;;;1.55;0.88;;;;;;;10.89;100.00;101119.81;5063099;28;20532;-83
2023/12/29 00:20:23;;;;;;;7.15;1.23;;;;;;;10.90;100.00;101111.25;5065600;28;20051;-83
2023/12/29 00:23:00;;;;;;;1.85;0.98;;;;;;;10.93;100.00;101100.13;5063406;28;20049;-83
2023/12/29 00:25:29;;;;;;;1.95;1.13;;;;;;;10.96;100.00;101105.38;5073903;28;20048;-84
2023/12/29 00:27:57;;;;;;;2.35;1.30;;;;;;;10.95;100.00;101092.38;5067547;28;20055;-83
2023/12/29 00:30:27;;;;;;;1.65;0.88;;;;;;;10.92;100.00;101077.63;5071555;28;20091;-83
2023/12/29 00:32:58;;;;;;;2.63;1.27;;;;;;;10.95;100.00;101093.28;5068949;28;20048;-83
2023/12/29 00:35:27;;;;;;;2.40;1.63;;;;;;;10.95;100.00;101082.00;5072296;28;20087;-82
2023/12/29 00:37:58;;;;;;;1.20;0.90;;;;;;;10.97;100.00;101101.97;5072206;28;20121;-83
2023/12/29 00:40:27;;;;;;;1.58;1.00;;;;;;;10.97;100.00;101093.31;5070941;28;20125;-83
2023/12/29 00:42:55;;;;;;;1.67;1.05;;;;;;;10.96;100.00;101091.56;5069517;28;20045;-83
2023/12/29 00:45:25;;;;;;;2.15;1.10;;;;;;;10.97;100.00;101098.47;5069765;28;20060;-83
2023/12/29 00:47:54;;;;;;;1.92;1.13;;;;;;;10.95;100.00;101103.63;5074287;28;20147;-84
2023/12/29 00:50:24;;;;;;;4.45;1.48;;;;;;;10.97;100.00;101103.66;5071995;28;20040;-84
2023/12/29 00:52:53;;;;;;;3.42;1.35;;;;;;;10.95;100.00;101107.91;5072837;28;20072;-83
2023/12/29 00:55:24;;;;;;;3.90;1.30;;;;;;;10.93;100.00;101110.47;5067417;28;20044;-82
2023/12/29 00:57:52;;;;;;;2.55;1.25;;;;;;;10.90;100.00;101097.41;5066691;28;20051;-83
2023/12/29 01:00:22;;;;;;;1.80;1.17;;;;;;;10.90;100.00;101111.25;5062596;28;20056;-83
2023/12/29 01:02:51;;;;;;;4.10;1.20;;;;;;;10.91;100.00;101117.31;5065681;28;20052;-83
2023/12/29 01:05:19;;;;;;;3.17;1.92;;;;;;;10.89;100.00;101103.41;5067981;28;20136;-83
2023/12/29 01:07:51;;;;;;;3.60;1.98;;;;;;;10.90;100.00;101105.16;5060502;28;20076;-84
2023/12/29 01:10:20;;;;;;;1.58;1.13;;;;;;;10.89;100.00;101111.19;5060564;28;20064;-83
2023/12/29 01:12:51;;;;;;;4.53;1.17;;;;;;;10.79;100.00;101102.22;5065768;28;20045;-83
2023/12/29 01:15:20;;;;;;;3.22;1.45;;;;;;;10.83;100.00;101108.38;5070032;28;20044;-83
2023/12/29 01:17:51;;;;;;;4.32;1.90;;;;;;;10.85;100.00;101105.00;5069296;28;20072;-82
2023/12/29 01:20:20;;;;;;;1.70;1.45;;;;;;;10.84;100.00;101107.56;5061566;28;20060;-85
2023/12/29 01:22:49;;;;;;;5.43;1.75;;;;;;;10.88;100.00;101099.06;5061533;28;20052;-87
2023/12/29 01:25:18;;;;;;;7.13;2.38;;;;;;;10.91;100.00;101086.22;5061462;28;20069;-86
2023/12/29 01:27:49;;;;;;;4.75;2.40;;;;;;;10.90;100.00;101081.88;5066921;28;20044;-86
2023/12/29 01:30:30;;;;;;;5.07;2.35;;;;;;;10.92;100.00;101082.78;5061146;28;20127;-86
2023/12/29 01:32:59;;;;;;;4.05;2.00;;;;;;;10.92;100.00;101072.44;5054594;28;20049;-88
2023/12/29 01:35:45;;;;;;;3.30;1.38;;;;;;;10.86;100.00;101067.97;5070878;28;20052;-85
2023/12/29 01:38:14;;;;;;;2.90;1.75;;;;;;;10.88;100.00;101080.94;5063335;28;20052;-85
2023/12/29 01:40:47;;;;;;;4.80;2.10;;;;;;;10.87;100.00;101077.47;5059514;28;20059;-86
2023/12/29 01:43:20;;;;;;;4.25;2.38;;;;;;;10.89;100.00;101070.63;5057685;28;20076;-86
2023/12/29 01:45:49;;;;;;;5.90;2.33;;;;;;;10.91;100.00;101073.28;5061871;28;20052;-85
2023/12/29 01:48:18;;;;;;;4.90;2.50;;;;;;;10.94;100.00;101075.09;5063793;28;20073;-85
2023/12/29 01:50:48;;;;;;;2.92;2.15;;;;;;;10.94;100.00;101077.69;5074487;28;20060;-86
2023/12/29 01:53:25;;;;;;;5.10;2.30;;;;;;;10.92;100.00;101066.41;5064227;28;20045;-87
2023/12/29 01:55:57;;;;;;;3.13;1.80;;;;;;;10.89;100.00;101068.03;5062942;28;20127;-87
2023/12/29 01:58:28;;;;;;;3.10;1.92;;;;;;;10.90;100.00;101067.22;5064151;28;20113;-86
2023/12/29 02:01:07;;;;;;;2.65;1.77;;;;;;;10.88;100.00;101070.56;5066161;28;20095;-86
2023/12/29 02:03:36;;;;;;;6.40;2.53;;;;;;;10.85;100.00;101073.06;5060129;28;20067;-86
2023/12/29 02:06:05;;;;;;;4.30;2.35;;;;;;;10.85;100.00;101070.47;5066466;28;20083;-86
2023/12/29 02:08:37;;;;;;;8.13;3.17;;;;;;;10.84;100.00;101055.78;5067907;28;20286;-86
2023/12/29 02:11:09;;;;;;;2.65;1.67;;;;;;;10.81;100.00;101047.91;5071714;28;20052;-88
2023/12/29 02:13:40;;;;;;;3.50;1.70;;;;;;;10.84;100.00;101048.91;5070293;28;20075;-86
2023/12/29 02:16:16;;;;;;;2.55;1.63;;;;;;;10.83;100.00;101041.94;5068422;28;20052;-86
2023/12/29 02:18:52;;;;;;;3.92;2.10;;;;;;;10.83;100.00;101038.50;5067600;28;20109;-84
2023/12/29 02:21:27;;;;;;;1.63;1.38;;;;;;;10.82;100.00;101028.97;5069955;28;20127;-86
2023/12/29 02:24:06;;;;;;;4.47;2.10;;;;;;;10.80;100.00;101043.56;5066438;28;20045;-85
2023/12/29 02:26:38;;;;;;;2.17;1.90;;;;;;;10.76;100.00;101046.88;5068302;28;20068;-85
2023/12/29 02:29:17;;;;;;;4.00;1.60;;;;;;;10.74;100.00;101045.94;5057698;28;20494;-85
2023/12/29 02:31:53;;;;;;;2.65;1.88;;;;;;;10.72;100.00;101045.91;5063400;28;20410;-84
2023/12/29 02:34:24;;;;;;;9.68;2.65;;;;;;;10.73;100.00;101054.56;5062805;28;20081;-85
2023/12/29 02:36:54;;;;;;;7.95;3.00;;;;;;;10.71;100.00;101048.44;5065518;28;20136;-85
2023/12/29 02:39:24;;;;;;;6.05;2.20;;;;;;;10.72;100.00;101050.19;5070926;28;20563;-85
2023/12/29 02:41:55;;;;;;;5.90;2.40;;;;;;;10.68;100.00;101037.16;5067747;28;20064;-85
2023/12/29 02:44:24;;;;;;;3.20;1.92;;;;;;;10.66;100.00;101018.09;5066639;28;20072;-86
2023/12/29 02:46:54;;;;;;;4.20;1.40;;;;;;;10.58;100.00;101004.06;5070040;28;20045;-87
2023/12/29 02:49:28;;;;;;;2.05;1.10;;;;;;;10.53;100.00;101007.31;5072705;28;20056;-86
2023/12/29 02:51:56;;;;;;;1.52;0.85;;;;;;;10.50;100.00;101009.78;5078658;28;20669;-86
2023/12/29 02:54:25;;;;;;;1.92;0.90;;;;;;;10.48;100.00;101018.38;5069157;28;20049;-86
2023/12/29 02:56:56;;;;;;;1.33;1.13;;;;;;;10.43;100.00;101021.63;5067359;28;20056;-85
2023/12/29 02:59:33;;;;;;;2.63;1.17;;;;;;;10.52;100.00;101039.19;5064207;28;20140;-85
2023/12/29 03:02:02;;;;;;;1.73;1.10;;;;;;;10.45;100.00;101023.44;5066539;28;20080;-85
2023/12/29 03:04:31;;;;;;;2.17;1.15;;;;;;;10.49;100.00;101027.03;5071211;28;20047;-86
2023/12/29 03:07:00;;;;;;;1.23;1.00;;;;;;;10.51;100.00;101021.88;5070778;28;20490;-84
2023/12/29 03:09:31;;;;;;;2.00;0.90;;;;;;;10.50;100.00;101033.94;5070616;28;20052;-85
2023/12/29 03:12:02;;;;;;;4.30;1.48;;;;;;;10.46;100.00;101035.53;5068689;28;20101;-84
2023/12/29 03:14:32;;;;;;;1.30;0.85;;;;;;;10.43;100.00;101019.06;5072553;28;20068;-86
2023/12/29 03:17:01;;;;;;;1.42;1.10;;;;;;;10.46;100.00;101025.19;5076437;28;20045;-86
2023/12/29 03:19:30;;;;;;;3.35;0.80;;;;;;;10.46;100.00;101019.16;5069386;28;20117;-85
2023/12/29 03:21:59;;;;;;;2.65;1.00;;;;;;;10.44;100.00;101018.22;5072781;28;20048;-87
2023/12/29 03:24:28;;;;;;;0.98;0.68;;;;;;;10.45;100.00;101017.41;5075205;28;20057;-86
2023/12/29 03:26:57;;;;;;;2.33;1.02;;;;;;;10.46;100.00;101034.66;5071556;28;20087;-85
2023/12/29 03:32:10;;;;;;;2.05;1.20;;;;;;;10.50;100.00;101018.44;5063782;28;20059;-85
2023/12/29 03:34:39;;;;;;;4.03;1.73;;;;;;;10.47;100.00;101005.41;5069137;28;20052;-85
2023/12/29 03:37:08;;;;;;;1.55;1.02;;;;;;;10.52;100.00;101019.38;5071557;28;20057;-86
2023/12/29 03:39:41;;;;;;;3.08;1.50;;;;;;;10.55;100.00;101019.44;5070688;28;20135;-85
2023/12/29 03:42:09;;;;;;;3.20;1.30;;;;;;;10.55;100.00;101032.38;5070266;28;20506;-86
2023/12/29 03:44:40;;;;;;;2.88;1.52;;;;;;;10.57;100.00;101022.97;5070408;28;20052;-85
2023/12/29 03:47:10;;;;;;;3.83;2.00;;;;;;;10.60;100.00;101015.31;5067971;28;20041;-86
2023/12/29 03:49:42;;;;;;;2.97;1.58;;;;;;;10.60;100.00;101012.72;5073699;28;20052;-85
2023/12/29 03:52:11;;;;;;;2.53;1.53;;;;;;;10.55;100.00;101009.09;5074898;28;20130;-87
2023/12/29 03:54:40;;;;;;;2.78;1.58;;;;;;;10.52;100.00;101014.19;5076439;28;20053;-85
2023/12/29 03:57:09;;;;;;;2.35;1.70;;;;;;;10.48;100.00;101008.00;5070965;28;20109;-85
2023/12/29 03:59:48;;;;;;;2.97;1.58;;;;;;;10.46;100.00;100993.28;5073619;28;20056;-87
2023/12/29 04:02:17;;;;;;;5.03;1.50;;;;;;;10.47;100.00;100976.94;5072614;28;20053;-85
2023/12/29 04:04:46;;;;;;;6.18;1.98;;;;;;;10.44;100.00;100969.06;5071717;28;20056;-85
2023/12/29 04:07:18;;;;;;;4.97;1.88;;;;;;;10.46;100.00;100978.63;5067544;28;20052;-86
2023/12/29 04:09:47;;;;;;;3.53;1.63;;;;;;;10.46;100.00;100972.56;5069965;28;20082;-87
2023/12/29 04:12:17;;;;;;;3.92;1.40;;;;;;;10.44;100.00;100963.88;5064390;28;20127;-86
2023/12/29 04:14:49;;;;;;;4.22;1.55;;;;;;;10.46;100.00;100964.81;5066638;28;20131;-86
2023/12/29 04:19:59;;;;;;;1.53;1.07;;;;;;;10.43;100.00;100939.72;5061930;28;20574;-87
2023/12/29 04:22:29;;;;;;;2.92;1.10;;;;;;;10.46;100.00;100946.72;5066638;28;20056;-87
2023/12/29 04:24:58;;;;;;;2.45;1.27;;;;;;;10.45;100.00;100944.97;5060793;28;20071;-87
2023/12/29 04:27:29;;;;;;;5.25;1.00;;;;;;;10.43;100.00;100936.28;5066032;28;20049;-87
2023/12/29 04:30:00;;;;;;;3.33;1.07;;;;;;;10.36;100.00;100921.38;5071329;28;20076;-84
2023/12/29 04:32:29;;;;;;;1.75;1.02;;;;;;;10.34;100.00;100931.66;5065785;28;20745;-85
2023/12/29 04:34:58;;;;;;;3.72;1.27;;;;;;;10.32;100.00;100920.38;5060779;28;20096;-85
2023/12/29 04:37:35;;;;;;;2.63;1.20;;;;;;;10.29;100.00;100916.84;5070135;28;20140;-85
2023/12/29 04:40:04;;;;;;;1.83;1.10;;;;;;;10.27;100.00;100921.91;5065542;28;20059;-85
2023/12/29 04:42:33;;;;;;;3.08;1.10;;;;;;;10.25;100.00;100905.47;5065301;28;20151;-86
2023/12/29 04:45:11;;;;;;;2.13;0.70;;;;;;;10.24;100.00;100903.72;5074063;28;20123;-86
2023/12/29 04:47:40;;;;;;;1.80;0.95;;;;;;;10.18;100.00;100895.75;5069716;28;20048;-86
2023/12/29 04:50:10;;;;;;;2.85;1.08;;;;;;;10.16;100.00;100900.84;5071026;28;20055;-86
2023/12/29 04:52:39;;;;;;;1.38;0.73;;;;;;;10.14;100.00;100897.34;5070452;28;20060;-87
2023/12/29 04:55:12;;;;;;;0.75;0.30;;;;;;;10.14;100.00;100894.75;5068952;28;20055;-86
2023/12/29 04:57:42;;;;;;;2.70;1.50;;;;;;;10.15;100.00;100883.59;5066271;28;20478;-86
2023/12/29 05:00:15;;;;;;;1.60;0.90;;;;;;;10.17;100.00;100888.81;5070139;28;20052;-86
2023/12/29 05:02:47;;;;;;;1.15;0.80;;;;;;;10.12;100.00;100892.94;5066547;28;20044;-85
2023/12/29 05:05:19;;;;;;;1.42;0.65;;;;;;;10.05;100.00;100881.53;5069831;28;20059;-88
2023/12/29 05:07:49;;;;;;;1.38;0.68;;;;;;;10.01;100.00;100879.66;5074437;28;20051;-87
2023/12/29 05:10:18;;;;;;;0.75;0.50;;;;;;;9.98;100.00;100882.16;5068230;28;20052;-85
2023/12/29 05:12:47;;;;;;;1.73;0.68;;;;;;;9.98;100.00;100882.16;5067017;28;20052;-86
2023/12/29 05:15:25;;;;;;;1.02;0.93;;;;;;;9.96;100.00;100871.75;5065591;28;20068;-86
2023/12/29 05:17:54;;;;;;;1.00;0.60;;;;;;;9.91;100.00;100868.13;5063498;28;20156;-86
2023/12/29 05:20:24;;;;;;;3.35;0.80;;;;;;;9.93;100.00;100874.22;5067796;28;20110;-86
2023/12/29 05:23:03;;;;;;;1.67;1.02;;;;;;;9.94;100.00;100868.25;5070650;28;20056;-86
2023/12/29 05:25:32;;;;;;;1.25;0.90;;;;;;;9.95;100.00;100851.91;5064608;28;20060;-86
2023/12/29 05:28:01;;;;;;;1.02;0.70;;;;;;;9.95;100.00;100846.72;5064902;28;20049;-86
2023/12/29 05:30:33;;;;;;;1.17;0.70;;;;;;;9.93;100.00;100850.09;5060360;28;20050;-84
2023/12/29 05:33:02;;;;;;;1.90;1.00;;;;;;;9.96;100.00;100852.78;5065725;28;20048;-85
2023/12/29 05:35:30;;;;;;;1.42;0.70;;;;;;;9.96;100.00;100855.38;5064871;28;20079;-85
2023/12/29 05:37:59;;;;;;;1.58;0.63;;;;;;;9.95;100.00;100858.78;5065770;28;20102;-85
2023/12/29 05:40:31;;;;;;;1.98;0.70;;;;;;;9.95;100.00;100853.63;5061826;28;20109;-86
2023/12/29 05:43:07;;;;;;;0.50;0.50;;;;;;;10.04;100.00;100859.09;5067177;28;20048;-84
2023/12/29 05:45:38;;;;;;;0.80;0.52;;;;;;;10.07;100.00;100854.00;5070191;28;20052;-85
2023/12/29 05:48:08;;;;;;;0.47;0.47;;;;;;;10.05;100.00;100832.41;5071938;28;20402;-84
2023/12/29 05:50:43;;;;;;;1.30;0.90;;;;;;;10.02;100.00;100829.72;5058676;28;20041;-85
2023/12/29 05:53:13;;;;;;;1.50;0.68;;;;;;;10.05;100.00;100837.56;5067944;28;20060;-85
2023/12/29 05:55:42;;;;;;;1.88;0.90;;;;;;;10.07;100.00;100838.50;5062461;28;20044;-85
2023/12/29 05:58:11;;;;;;;0.85;0.55;;;;;;;10.06;100.00;100831.59;5064460;28;20083;-86
2023/12/29 06:00:45;;;;;;;0.70;0.63;;;;;;;10.10;100.00;100828.28;5071609;28;20056;-85
2023/12/29 06:03:14;;;;;;;1.05;0.55;;;;;;;10.16;100.00;100827.59;5064023;28;20061;-85
2023/12/29 06:05:43;;;;;;;1.95;0.60;;;;;;;10.16;100.00;100823.28;5066327;28;20409;-85
2023/12/29 06:08:12;;;;;;;1.02;0.57;;;;;;;10.17;100.00;100809.56;5062662;28;20490;-85
2023/12/29 06:10:51;;;;;;;2.15;0.73;;;;;;;10.13;100.00;100805.09;5070830;28;20076;-85
2023/12/29 06:13:20;;;;;;;1.00;0.40;;;;;;;10.21;100.00;100808.78;5066503;28;20055;-85
2023/12/29 06:15:51;;;;;;;0.93;0.60;;;;;;;10.25;100.00;100805.47;5072804;28;20137;-86
2023/12/29 06:18:20;;;;;;;1.15;0.57;;;;;;;10.29;100.00;100795.28;5064386;28;20091;-85
2023/12/29 06:20:52;;;;;;;0.80;0.68;;;;;;;10.30;100.00;100795.31;5071357;28;20048;-86
2023/12/29 06:23:21;;;;;;;1.83;0.70;;;;;;;10.31;97.27;100778.06;5068191;28;20083;-85
2023/12/29 06:25:50;;;;;;;0.88;0.50;;;;;;;10.29;97.54;100770.28;5064325;28;20064;-85
2023/12/29 06:28:19;;;;;;;1.67;0.73;;;;;;;10.34;98.97;100781.66;5064731;28;20102;-85
2023/12/29 06:30:53;;;;;;;1.95;0.50;;;;;;;10.37;97.67;100786.91;5068391;28;20051;-85
2023/12/29 06:33:22;;;;;;;0.98;0.60;;;;;;;10.38;98.03;100777.47;5069452;28;20135;-85
2023/12/29 06:35:53;;;;;;;0.75;0.50;;;;;;;10.39;95.66;100771.44;5067386;28;20052;-85
2023/12/29 06:38:24;;;;;;;1.83;0.77;;;;;;;10.42;96.78;100758.59;5069989;28;20500;-85
2023/12/29 06:41:00;;;;;;;2.03;0.85;;;;;;;10.41;94.64;100752.56;5067901;28;20140;-85
2023/12/29 06:43:29;;;;;;;1.35;0.68;;;;;;;10.42;95.56;100740.50;5057429;28;20044;-85
2023/12/29 06:46:00;;;;;;;1.15;0.70;;;;;;;10.39;95.75;100743.00;5065669;28;20063;-86
2023/12/29 06:48:34;;;;;;;1.85;0.57;;;;;;;10.36;95.79;100727.41;5068182;28;20055;-84
2023/12/29 06:51:03;;;;;;;0.50;0.40;;;;;;;10.34;96.91;100723.88;5072334;28;20421;-85
2023/12/29 06:53:32;;;;;;;2.97;0.95;;;;;;;10.29;94.72;100741.84;5066856;28;20044;-85
2023/12/29 06:56:02;;;;;;;0.80;0.60;;;;;;;10.25;97.48;100738.25;5070272;28;20049;-86
2023/12/29 06:58:33;;;;;;;1.52;0.57;;;;;;;10.23;98.64;100749.38;5067352;28;20053;-84
2023/12/29 07:01:04;;;;;;;1.90;0.52;;;;;;;10.16;98.71;100745.72;5069651;28;20048;-83
2023/12/29 07:03:33;;;;;;;0.82;0.45;;;;;;;10.17;99.72;100752.66;5065942;28;20062;-84
2023/12/29 07:06:03;;;;;;;0.82;0.60;;;;;;;10.12;100.00;100733.53;5067008;28;20064;-84
2023/12/29 07:08:40;;;;;;;2.00;1.20;;;;;;;10.07;97.21;100729.91;5065436;28;20068;-84
2023/12/29 07:11:13;;;;;;;0.80;0.50;;;;;;;10.11;99.39;100726.59;5069025;28;20060;-84
2023/12/29 07:13:42;;;;;;;0.85;0.52;;;;;;;10.09;98.07;100728.25;5063629;28;20048;-85
2023/12/29 07:16:20;;;;;;;1.60;0.57;;;;;;;10.12;97.18;100728.34;5063803;28;20053;-85
2023/12/29 07:18:49;;;;;;;2.10;0.80;;;;;;;10.13;98.79;100735.28;5066891;28;20049;-85
2023/12/29 07:21:19;;;;;;;1.45;0.70;;;;;;;10.17;96.58;100726.81;5062072;28;20099;-85
2023/12/29 07:23:48;;;;;;;0.65;0.50;;;;;;;10.22;96.50;100725.22;5065201;28;20053;-84
2023/12/29 07:26:20;;;;;;;0.93;0.60;;;;;;;10.25;94.93;100730.50;5059945;28;20053;-84
2023/12/29 07:28:53;;;;;;;;;;;;;;;10.28;95.58;100719.34;5066296;28;20056;-85
2023/12/29 07:31:24;;;;;;;;;;;;;;;10.31;93.71;100718.59;5067517;28;19970;-86
2023/12/29 07:33:58;;;;;;;1.25;0.70;;;;;;;10.33;94.79;100715.25;5075937;28;19951;-85
2023/12/29 07:36:27;;;;;;;1.23;0.50;;;;;;;10.36;92.35;100705.00;5069803;28;20060;-86
2023/12/29 07:38:56;;;;;;;0.57;0.50;;;;;;;10.40;93.82;100704.25;5068238;28;20052;-86
2023/12/29 07:41:25;;;;;;;1.52;0.73;;;;;;;10.40;91.50;100693.00;5069057;28;20113;-85
2023/12/29 07:43:56;;;;;;;1.23;0.50;;;;;;;10.43;92.07;100687.94;5071255;28;20052;-86
2023/12/29 07:46:39;;;;;;;4.72;0.77;;;;;;;10.43;92.32;100662.06;5073101;28;20184;-85
2023/12/29 07:49:07;;;;;;;;;;;;;;;10.43;92.31;100662.06;5068307;28;20060;-86
2023/12/29 07:51:46;;;;;;;;;;;;;;;;;;;;;
2023/12/29 07:54:15;;;;;;;1.15;0.40;;;;;;;10.24;93.61;100642.53;5070475;28;20048;-85
2023/12/29 07:56:44;;;;;;;1.20;0.70;;;;;;;10.24;95.14;100645.13;5070922;28;20087;-85
2023/12/29 07:59:13;;;;;;;0.95;0.70;;;;;;;10.27;96.34;100655.53;5072991;28;20112;-84
2023/12/29 08:01:48;;;;;;;0.90;0.50;;;;;;;10.26;95.08;100646.91;5070529;28;20136;-85
2023/12/29 08:04:17;;;;;;;0.85;0.47;;;;;;;10.25;94.73;100652.91;5071401;28;20087;-86
2023/12/29 08:06:47;;;;;;;2.55;0.40;;;;;;;10.18;95.96;100638.06;5069258;28;20140;-84
2023/12/29 08:09:16;;;;;;;0.93;0.52;;;;;;;10.19;97.98;100639.81;5071758;28;20090;-84
2023/12/29 08:11:45;;;;;;;1.27;0.50;;;;;;;10.16;97.18;100625.91;5071886;28;20095;-85
2023/12/29 08:14:14;;;;;;;0.73;0.60;;;;;;;10.13;97.52;100621.53;5076235;28;20063;-84
2023/12/29 08:16:45;;;;;;;1.30;0.65;;;;;;;10.07;97.99;100627.38;5071600;28;20436;-83
2023/12/29 08:19:15;;;;;;;1.70;0.70;;;;;;;10.08;97.30;100620.53;5071289;28;20045;-84
2023/12/29 08:21:53;;;;;;;0.63;0.50;;;;;;;10.06;98.28;100627.38;5071172;28;20052;-84
2023/12/29 08:24:22;;;;;;;0.40;0.30;;;;;;;10.05;97.41;100618.69;5062542;28;20069;-84
2023/12/29 08:26:51;;;;;;;1.63;0.80;;;;;;;10.06;98.85;100599.78;5068906;28;20051;-84
2023/12/29 08:29:25;;;;;;;1.00;0.55;;;;;;;10.04;98.71;100598.00;5070269;28;20071;-84
2023/12/29 08:31:57;;;;;;;1.58;0.88;;;;;;;10.05;98.90;100598.03;5072551;28;20053;-84
2023/12/29 08:34:25;;;;;;;0.80;0.63;;;;;;;10.03;96.48;100583.31;5069529;28;20056;-83
2023/12/29 08:36:56;;;;;;;1.02;0.55;;;;;;;10.01;95.29;100574.63;5069374;28;20131;-84
2023/12/29 08:39:25;;;;;;;0.88;0.50;;;;;;;9.98;94.00;100559.03;5068113;28;20057;-85
2023/12/29 08:41:58;;;;;;;0.70;0.60;;;;;;;10.01;96.31;100564.28;5069470;28;20139;-85
2023/12/29 08:44:28;;;;;;;1.90;0.60;;;;;;;10.03;95.96;100558.34;5069408;28;20072;-83
2023/12/29 08:46:59;;;;;;;0.98;0.40;;;;;;;10.03;98.27;100547.13;5072097;28;20056;-83
2023/12/29 08:49:28;;;;;;;0.95;0.73;;;;;;;10.05;97.25;100541.16;5073365;28;20066;-84
2023/12/29 08:51:59;;;;;;;2.80;0.63;;;;;;;10.07;97.98;100547.25;5072753;28;20045;-84
2023/12/29 08:54:29;;;;;;;0.50;0.40;;;;;;;10.01;96.19;100556.53;5068767;28;20170;-84
2023/12/29 08:56:58;;;;;;;0.95;0.65;;;;;;;10.00;97.58;100568.59;5068132;28;20061;-84
2023/12/29 08:59:27;;;;;;;0.63;0.40;;;;;;;10.01;95.39;100595.31;5067951;28;20045;-85
2023/12/29 09:02:13;;;;;;;1.70;0.50;;;;;;;9.93;95.38;100587.34;5062183;28;20095;-85
2023/12/29 09:04:43;;;;;;;4.70;0.50;;;;;;;9.99;96.87;100612.50;5062705;28;20064;-85
2023/12/29 09:07:18;;;;;;;0.80;0.50;;;;;;;10.01;95.68;100596.22;5071972;28;20098;-85
2023/12/29 09:09:47;;;;;;;0.57;0.50;;;;;;;10.06;95.68;100609.25;5071854;28;20064;-84
2023/12/29 09:12:16;;;;;;;0.55;0.30;;;;;;;10.08;96.98;100607.59;5073843;28;20076;-84
2023/12/29 09:14:45;;;;;;;0.55;0.50;;;;;;;10.12;97.34;100608.56;5068527;28;20059;-85
2023/12/29 09:17:17;;;;;;;0.90;0.32;;;;;;;10.12;97.23;100600.78;5071715;28;20059;-85
2023/12/29 09:19:46;;;;;;;0.82;0.40;;;;;;;10.17;91.56;100601.78;5067826;28;20045;-85
2023/12/29 09:22:15;;;;;;;1.60;0.40;;;;;;;10.24;91.12;100596.88;5068491;28;20056;-84
2023/12/29 09:24:45;;;;;;;0.98;0.50;;;;;;;10.32;93.70;100593.66;5069367;28;20415;-84
2023/12/29 09:27:13;;;;;;;0.60;0.35;;;;;;;10.37;93.16;100581.72;5069035;28;20101;-84
2023/12/29 09:29:45;;;;;;;0.68;0.50;;;;;;;10.38;90.97;100573.13;5067357;28;20115;-84
2023/12/29 09:32:17;;;;;;;0.98;0.40;;;;;;;10.46;93.56;100584.53;5070304;28;20084;-84
2023/12/29 09:34:47;;;;;;;0.57;0.35;;;;;;;10.47;93.75;100579.44;5065070;28;20362;-84
2023/12/29 09:37:17;;;;;;;0.70;0.40;;;;;;;10.48;94.01;100583.75;5065602;28;20076;-83
2023/12/29 09:39:55;;;;;;;2.00;0.65;;;;;;;10.49;96.30;100589.81;5066358;28;20052;-84
2023/12/29 09:42:26;;;;;;;0.95;0.50;;;;;;;10.47;93.46;100574.25;5064345;28;20045;-83
2023/12/29 09:44:55;;;;;;;0.40;0.30;;;;;;;10.48;92.75;100572.53;5068075;28;20102;-84
2023/12/29 09:47:40;;;;;;;0.68;0.47;;;;;;;10.47;93.24;100576.84;5067409;28;20048;-84
2023/12/29 09:50:13;;;;;;;1.33;0.50;;;;;;;10.42;91.58;100572.34;5071317;28;20055;-84
2023/12/29 09:52:43;;;;;;;0.30;0.30;;;;;;;10.40;91.13;100585.28;5068923;28;20106;-84
2023/12/29 09:55:12;;;;;;;0.95;0.52;;;;;;;10.35;91.60;100585.97;5066869;28;20045;-84
2023/12/29 09:57:42;;;;;;;0.77;0.47;;;;;;;10.37;92.88;100592.06;5066982;28;20470;-85
2023/12/29 10:00:13;;;;;;;0.68;0.40;;;;;;;10.41;93.81;100586.13;5066628;28;20049;-84
2023/12/29 10:02:54;;;;;;;0.30;0.20;;;;;;;10.42;93.71;100578.44;5074494;28;20079;-85
2023/12/29 10:05:23;;;;;;;0.65;0.60;;;;;;;10.45;92.43;100585.41;5066507;28;20052;-84
2023/12/29 10:07:54;;;;;;;0.60;0.35;;;;;;;10.46;90.65;100574.19;5069150;28;20120;-85
2023/12/29 10:10:31;;;;;;;0.63;0.40;;;;;;;10.49;88.33;100558.78;5064761;28;20102;-85
2023/12/29 10:13:01;;;;;;;0.40;0.30;;;;;;;10.54;87.09;100546.84;5066648;28;20080;-85
2023/12/29 10:15:39;;;;;;;1.02;0.40;;;;;;;10.59;86.27;100547.81;5066369;28;20143;-85
2023/12/29 10:18:24;;;;;;;1.17;0.60;;;;;;;10.60;86.27;100521.09;5062080;28;20056;-84
2023/12/29 10:21:07;;;;;;;0.50;0.40;;;;;;;10.56;86.84;100503.78;5073757;28;20139;-85
2023/12/29 10:23:42;;;;;;;0.68;0.40;;;;;;;10.59;87.35;100497.81;5066019;28;20558;-85
2023/12/29 10:26:14;;;;;;;0.80;0.57;;;;;;;10.61;87.63;100499.59;5063770;28;20201;-84
2023/12/29 10:28:51;;;;;;;0.70;0.38;;;;;;;10.53;86.35;100508.84;5064843;28;20053;-84
2023/12/29 10:31:20;;;;;;;0.88;0.50;;;;;;;10.55;88.46;100535.63;5067458;28;20081;-85
2023/12/29 10:33:52;;;;;;;0.80;0.30;;;;;;;10.52;88.55;100543.34;5067529;28;20052;-83
2023/12/29 10:36:21;;;;;;;0.93;0.60;;;;;;;10.47;87.82;100560.44;5063503;28;20184;-85
2023/12/29 10:39:09;;;;;;;1.17;0.47;;;;;;;10.45;87.93;100573.34;5069123;28;20060;-86
2023/12/29 10:41:38;;;;;;;1.25;0.50;;;;;;;10.48;89.49;100577.72;5068633;28;20053;-85
2023/12/29 10:44:10;;;;;;;1.45;0.63;;;;;;;10.48;86.43;100575.13;5069456;28;20095;-85
2023/12/29 10:46:39;;;;;;;;;;;;;;;10.51;88.43;100577.78;5071352;28;20140;-85
2023/12/29 10:49:13;;;;;;;0.65;0.38;;;;;;;10.50;91.52;100570.88;5066902;28;19924;-84
2023/12/29 10:51:50;;;;;;;0.80;0.50;;;;;;;10.48;93.05;100567.34;5071805;28;20052;-84
2023/12/29 10:54:23;;;;;;;1.10;0.40;;;;;;;10.50;89.55;100573.44;5066012;28;20099;-84
2023/12/29 10:57:05;;;;;;;1.05;0.65;;;;;;;10.52;92.54;100553.69;5063221;28;20057;-85
2023/12/29 10:59:34;;;;;;;1.13;0.60;;;;;;;10.56;90.02;100550.34;5064343;28;20051;-85
2023/12/29 11:02:05;;;;;;;2.58;0.60;;;;;;;10.60;88.31;100548.69;5066481;28;20077;-85
2023/12/29 11:04:36;;;;;;;2.42;0.40;;;;;;;10.61;87.36;100530.63;5066615;28;20045;-85
2023/12/29 11:07:14;;;;;;;0.75;0.40;;;;;;;10.64;84.70;100522.06;5068567;28;20051;-85
2023/12/29 11:09:43;;;;;;;1.00;0.40;;;;;;;10.67;85.62;100517.88;5064492;28;20140;-85
2023/12/29 11:12:14;;;;;;;0.40;0.40;;;;;;;10.71;87.21;100507.56;5073702;28;20052;-84
2023/12/29 11:14:49;;;;;;;0.70;0.68;;;;;;;10.70;88.18;100493.78;5068598;28;20071;-85
2023/12/29 11:17:19;;;;;;;1.42;0.38;;;;;;;10.68;84.53;100469.56;5065594;28;20438;-85
2023/12/29 11:19:51;;;;;;;0.52;0.40;;;;;;;10.68;85.21;100452.31;5069992;28;20075;-84
2023/12/29 11:22:23;;;;;;;0.77;0.40;;;;;;;10.73;83.80;100462.78;5070269;28;20052;-85
2023/12/29 11:24:55;;;;;;;0.55;0.40;;;;;;;10.73;83.52;100470.53;5067974;28;20521;-86
2023/12/29 11:27:25;;;;;;;1.70;0.60;;;;;;;10.73;86.33;100478.31;5073159;28;20052;-85
2023/12/29 11:29:55;;;;;;;1.13;0.70;;;;;;;10.72;87.08;100493.78;5073974;28;20057;-85
2023/12/29 11:32:34;;;;;;;0.47;0.40;;;;;;;10.71;86.26;100490.34;5063534;28;20052;-85
2023/12/29 11:35:14;;;;;;;0.85;0.50;;;;;;;10.73;85.66;100495.56;5068835;28;20099;-85
2023/12/29 11:38:18;;;;;;;0.50;0.40;;;;;;;10.67;84.70;100502.34;5065390;28;20049;-85
2023/12/29 11:40:49;;;;;;;;;;;;;;;10.64;87.59;100497.06;5064372;28;20071;-86
2023/12/29 11:43:20;;;;;;;0.75;0.52;;;;;;;10.67;87.17;100502.34;5070233;28;19908;-85
2023/12/29 11:45:49;;;;;;;0.30;0.30;;;;;;;10.68;91.03;100478.19;5068280;28;20049;-85
2023/12/29 11:49:03;;;;;;;0.90;0.60;;;;;;;10.61;85.56;100460.78;5074135;28;20083;-85